sensor_id;sensor_type;location;lat;lon;timestamp;P1;durP1;ratioP1;P2;durP2;ratioP2
31920;SDS011;66485;52.128;4.436;2023-06-10T00:00:37;9.32;;;5.47;;
31920;SDS011;66485;52.128;4.436;2023-06-10T00:03:03;8.75;;;5.10;;
31920;SDS011;66485;52.128;4.436;2023-06-10T00:05:28;7.88;;;5.57;;
31920;SDS011;66485;52.128;4.436;2023-06-10T00:07:56;7.80;;;5.38;;
31920;SDS011;66485;52.128;4.436;2023-06-10T00:10:22;8.07;;;5.50;;
31920;SDS011;66485;52.128;4.436;2023-06-10T00:12:49;8.98;;;5.60;;
31920;SDS011;66485;52.128;4.436;2023-06-10T00:15:14;9.57;;;5.70;;
31920;SDS011;66485;52.128;4.436;2023-06-10T00:17:40;7.10;;;5.00;;
31920;SDS011;66485;52.128;4.436;2023-06-10T00:20:07;8.43;;;5.60;;
31920;SDS011;66485;52.128;4.436;2023-06-10T00:22:35;7.65;;;5.22;;
31920;SDS011;66485;52.128;4.436;2023-06-10T00:25:01;8.82;;;5.57;;
31920;SDS011;66485;52.128;4.436;2023-06-10T00:27:29;8.23;;;5.88;;
31920;SDS011;66485;52.128;4.436;2023-06-10T00:29:59;7.07;;;5.35;;
31920;SDS011;66485;52.128;4.436;2023-06-10T00:32:26;8.07;;;5.30;;
31920;SDS011;66485;52.128;4.436;2023-06-10T00:34:51;7.10;;;5.40;;
31920;SDS011;66485;52.128;4.436;2023-06-10T00:37:16;8.30;;;5.40;;
31920;SDS011;66485;52.128;4.436;2023-06-10T00:39:41;10.05;;;5.28;;
31920;SDS011;66485;52.128;4.436;2023-06-10T00:42:07;9.53;;;5.60;;
31920;SDS011;66485;52.128;4.436;2023-06-10T00:44:32;7.95;;;5.70;;
31920;SDS011;66485;52.128;4.436;2023-06-10T00:46:58;9.38;;;5.82;;
31920;SDS011;66485;52.128;4.436;2023-06-10T00:49:23;8.73;;;5.47;;
31920;SDS011;66485;52.128;4.436;2023-06-10T00:51:50;8.02;;;5.60;;
31920;SDS011;66485;52.128;4.436;2023-06-10T00:54:17;10.63;;;5.88;;
31920;SDS011;66485;52.128;4.436;2023-06-10T00:56:43;9.60;;;6.53;;
31920;SDS011;66485;52.128;4.436;2023-06-10T00:59:08;8.13;;;5.20;;
31920;SDS011;66485;52.128;4.436;2023-06-10T01:01:34;6.88;;;5.72;;
31920;SDS011;66485;52.128;4.436;2023-06-10T01:03:59;10.50;;;6.00;;
31920;SDS011;66485;52.128;4.436;2023-06-10T01:09:02;8.75;;;5.63;;
31920;SDS011;66485;52.128;4.436;2023-06-10T01:12:07;9.63;;;6.10;;
31920;SDS011;66485;52.128;4.436;2023-06-10T01:14:41;10.43;;;5.88;;
31920;SDS011;66485;52.128;4.436;2023-06-10T01:17:09;9.82;;;5.75;;
31920;SDS011;66485;52.128;4.436;2023-06-10T01:19:36;8.45;;;5.95;;
31920;SDS011;66485;52.128;4.436;2023-06-10T01:22:01;10.85;;;6.22;;
31920;SDS011;66485;52.128;4.436;2023-06-10T01:24:27;12.02;;;6.40;;
31920;SDS011;66485;52.128;4.436;2023-06-10T01:26:54;8.35;;;6.20;;
31920;SDS011;66485;52.128;4.436;2023-06-10T01:29:29;9.68;;;6.20;;
31920;SDS011;66485;52.128;4.436;2023-06-10T01:32:15;8.52;;;6.20;;
31920;SDS011;66485;52.128;4.436;2023-06-10T01:34:43;8.98;;;6.10;;
31920;SDS011;66485;52.128;4.436;2023-06-10T01:37:12;8.75;;;6.40;;
31920;SDS011;66485;52.128;4.436;2023-06-10T01:39:40;8.45;;;5.88;;
31920;SDS011;66485;52.128;4.436;2023-06-10T01:42:07;9.57;;;6.68;;
31920;SDS011;66485;52.128;4.436;2023-06-10T01:44:35;8.93;;;6.07;;
31920;SDS011;66485;52.128;4.436;2023-06-10T01:47:00;8.05;;;5.68;;
31920;SDS011;66485;52.128;4.436;2023-06-10T01:49:26;8.35;;;5.78;;
31920;SDS011;66485;52.128;4.436;2023-06-10T01:51:53;8.82;;;6.15;;
31920;SDS011;66485;52.128;4.436;2023-06-10T01:54:19;9.88;;;6.07;;
31920;SDS011;66485;52.128;4.436;2023-06-10T01:56:44;9.45;;;5.90;;
31920;SDS011;66485;52.128;4.436;2023-06-10T01:59:09;10.10;;;6.40;;
31920;SDS011;66485;52.128;4.436;2023-06-10T02:01:35;8.85;;;5.95;;
31920;SDS011;66485;52.128;4.436;2023-06-10T02:04:00;10.17;;;6.17;;
31920;SDS011;66485;52.128;4.436;2023-06-10T02:06:25;10.43;;;5.80;;
31920;SDS011;66485;52.128;4.436;2023-06-10T02:08:50;8.43;;;6.28;;
31920;SDS011;66485;52.128;4.436;2023-06-10T02:11:16;9.68;;;6.05;;
31920;SDS011;66485;52.128;4.436;2023-06-10T02:13:41;10.02;;;6.57;;
31920;SDS011;66485;52.128;4.436;2023-06-10T02:16:06;10.73;;;6.18;;
31920;SDS011;66485;52.128;4.436;2023-06-10T02:18:32;8.27;;;5.93;;
31920;SDS011;66485;52.128;4.436;2023-06-10T02:20:58;10.10;;;6.38;;
31920;SDS011;66485;52.128;4.436;2023-06-10T02:23:24;10.05;;;5.88;;
31920;SDS011;66485;52.128;4.436;2023-06-10T02:25:49;8.80;;;6.15;;
31920;SDS011;66485;52.128;4.436;2023-06-10T02:28:14;9.10;;;5.90;;
31920;SDS011;66485;52.128;4.436;2023-06-10T02:30:40;10.57;;;6.15;;
31920;SDS011;66485;52.128;4.436;2023-06-10T02:33:07;9.93;;;5.95;;
31920;SDS011;66485;52.128;4.436;2023-06-10T02:35:35;8.70;;;5.88;;
31920;SDS011;66485;52.128;4.436;2023-06-10T02:38:01;10.35;;;5.97;;
31920;SDS011;66485;52.128;4.436;2023-06-10T02:40:27;9.48;;;6.28;;
31920;SDS011;66485;52.128;4.436;2023-06-10T02:42:52;7.43;;;5.47;;
31920;SDS011;66485;52.128;4.436;2023-06-10T02:45:17;9.60;;;6.50;;
31920;SDS011;66485;52.128;4.436;2023-06-10T02:47:43;8.53;;;5.40;;
31920;SDS011;66485;52.128;4.436;2023-06-10T02:50:08;8.55;;;5.85;;
31920;SDS011;66485;52.128;4.436;2023-06-10T02:52:34;8.00;;;5.80;;
31920;SDS011;66485;52.128;4.436;2023-06-10T02:54:59;10.02;;;6.38;;
31920;SDS011;66485;52.128;4.436;2023-06-10T02:57:24;8.70;;;6.30;;
31920;SDS011;66485;52.128;4.436;2023-06-10T02:59:49;8.38;;;5.75;;
31920;SDS011;66485;52.128;4.436;2023-06-10T03:02:16;9.73;;;6.15;;
31920;SDS011;66485;52.128;4.436;2023-06-10T03:04:41;9.98;;;6.30;;
31920;SDS011;66485;52.128;4.436;2023-06-10T03:07:08;9.15;;;5.90;;
31920;SDS011;66485;52.128;4.436;2023-06-10T03:09:36;11.13;;;5.68;;
31920;SDS011;66485;52.128;4.436;2023-06-10T03:12:01;7.95;;;5.70;;
31920;SDS011;66485;52.128;4.436;2023-06-10T03:14:27;8.60;;;5.50;;
31920;SDS011;66485;52.128;4.436;2023-06-10T03:16:52;8.38;;;5.47;;
31920;SDS011;66485;52.128;4.436;2023-06-10T03:19:18;9.18;;;6.00;;
31920;SDS011;66485;52.128;4.436;2023-06-10T03:21:44;10.52;;;6.32;;
31920;SDS011;66485;52.128;4.436;2023-06-10T03:24:09;8.40;;;5.82;;
31920;SDS011;66485;52.128;4.436;2023-06-10T03:26:36;8.90;;;6.03;;
31920;SDS011;66485;52.128;4.436;2023-06-10T03:29:01;8.32;;;5.93;;
31920;SDS011;66485;52.128;4.436;2023-06-10T03:31:27;7.13;;;5.32;;
31920;SDS011;66485;52.128;4.436;2023-06-10T03:33:52;9.77;;;5.90;;
31920;SDS011;66485;52.128;4.436;2023-06-10T03:36:17;10.38;;;6.30;;
31920;SDS011;66485;52.128;4.436;2023-06-10T03:38:43;8.27;;;5.72;;
31920;SDS011;66485;52.128;4.436;2023-06-10T03:41:08;7.80;;;5.65;;
31920;SDS011;66485;52.128;4.436;2023-06-10T03:43:33;9.40;;;6.10;;
31920;SDS011;66485;52.128;4.436;2023-06-10T03:45:59;7.88;;;5.80;;
31920;SDS011;66485;52.128;4.436;2023-06-10T03:48:24;8.98;;;6.05;;
31920;SDS011;66485;52.128;4.436;2023-06-10T03:50:49;7.17;;;5.43;;
31920;SDS011;66485;52.128;4.436;2023-06-10T03:53:18;8.32;;;5.70;;
31920;SDS011;66485;52.128;4.436;2023-06-10T03:55:43;9.27;;;6.22;;
31920;SDS011;66485;52.128;4.436;2023-06-10T03:58:09;9.70;;;5.45;;
31920;SDS011;66485;52.128;4.436;2023-06-10T04:00:38;8.40;;;5.70;;
31920;SDS011;66485;52.128;4.436;2023-06-10T04:03:06;9.85;;;6.05;;
31920;SDS011;66485;52.128;4.436;2023-06-10T04:05:34;7.95;;;5.10;;
31920;SDS011;66485;52.128;4.436;2023-06-10T04:07:59;9.00;;;5.90;;
31920;SDS011;66485;52.128;4.436;2023-06-10T04:10:26;8.43;;;5.63;;
31920;SDS011;66485;52.128;4.436;2023-06-10T04:12:52;8.27;;;5.57;;
31920;SDS011;66485;52.128;4.436;2023-06-10T04:15:17;7.35;;;5.45;;
31920;SDS011;66485;52.128;4.436;2023-06-10T04:17:43;8.27;;;6.00;;
31920;SDS011;66485;52.128;4.436;2023-06-10T04:20:08;8.38;;;5.65;;
31920;SDS011;66485;52.128;4.436;2023-06-10T04:22:34;8.30;;;5.82;;
31920;SDS011;66485;52.128;4.436;2023-06-10T04:25:01;8.45;;;5.35;;
31920;SDS011;66485;52.128;4.436;2023-06-10T04:27:27;7.93;;;5.43;;
31920;SDS011;66485;52.128;4.436;2023-06-10T04:29:52;8.40;;;5.57;;
31920;SDS011;66485;52.128;4.436;2023-06-10T04:32:18;9.13;;;6.05;;
31920;SDS011;66485;52.128;4.436;2023-06-10T04:34:43;8.70;;;5.55;;
31920;SDS011;66485;52.128;4.436;2023-06-10T04:37:09;9.32;;;5.80;;
31920;SDS011;66485;52.128;4.436;2023-06-10T04:39:34;8.15;;;5.47;;
31920;SDS011;66485;52.128;4.436;2023-06-10T04:41:59;9.55;;;5.65;;
31920;SDS011;66485;52.128;4.436;2023-06-10T04:44:25;7.95;;;5.35;;
31920;SDS011;66485;52.128;4.436;2023-06-10T04:46:51;8.05;;;5.47;;
31920;SDS011;66485;52.128;4.436;2023-06-10T04:49:16;9.27;;;5.68;;
31920;SDS011;66485;52.128;4.436;2023-06-10T04:51:41;8.10;;;5.65;;
31920;SDS011;66485;52.128;4.436;2023-06-10T04:54:07;8.35;;;5.57;;
31920;SDS011;66485;52.128;4.436;2023-06-10T04:56:32;7.93;;;5.50;;
31920;SDS011;66485;52.128;4.436;2023-06-10T04:58:58;7.65;;;5.05;;
31920;SDS011;66485;52.128;4.436;2023-06-10T05:01:23;9.60;;;5.82;;
31920;SDS011;66485;52.128;4.436;2023-06-10T05:03:49;8.48;;;5.43;;
31920;SDS011;66485;52.128;4.436;2023-06-10T05:06:14;8.52;;;5.70;;
31920;SDS011;66485;52.128;4.436;2023-06-10T05:08:40;8.63;;;5.60;;
31920;SDS011;66485;52.128;4.436;2023-06-10T05:11:05;7.30;;;5.32;;
31920;SDS011;66485;52.128;4.436;2023-06-10T05:13:31;8.15;;;5.50;;
31920;SDS011;66485;52.128;4.436;2023-06-10T05:15:56;7.47;;;5.28;;
31920;SDS011;66485;52.128;4.436;2023-06-10T05:18:22;7.78;;;5.15;;
31920;SDS011;66485;52.128;4.436;2023-06-10T05:20:47;7.47;;;4.90;;
31920;SDS011;66485;52.128;4.436;2023-06-10T05:23:13;9.32;;;5.75;;
31920;SDS011;66485;52.128;4.436;2023-06-10T05:25:38;9.20;;;5.47;;
31920;SDS011;66485;52.128;4.436;2023-06-10T05:28:03;8.82;;;5.30;;
31920;SDS011;66485;52.128;4.436;2023-06-10T05:30:29;7.97;;;5.43;;
31920;SDS011;66485;52.128;4.436;2023-06-10T05:32:54;8.48;;;5.50;;
31920;SDS011;66485;52.128;4.436;2023-06-10T05:35:21;8.13;;;5.32;;
31920;SDS011;66485;52.128;4.436;2023-06-10T05:37:46;7.90;;;5.47;;
31920;SDS011;66485;52.128;4.436;2023-06-10T05:40:12;7.53;;;5.07;;
31920;SDS011;66485;52.128;4.436;2023-06-10T05:42:37;9.05;;;5.07;;
31920;SDS011;66485;52.128;4.436;2023-06-10T05:45:03;8.43;;;4.93;;
31920;SDS011;66485;52.128;4.436;2023-06-10T05:47:28;7.38;;;5.07;;
31920;SDS011;66485;52.128;4.436;2023-06-10T05:49:54;7.38;;;5.28;;
31920;SDS011;66485;52.128;4.436;2023-06-10T05:52:19;8.15;;;5.65;;
31920;SDS011;66485;52.128;4.436;2023-06-10T05:54:45;8.55;;;5.13;;
31920;SDS011;66485;52.128;4.436;2023-06-10T05:57:10;7.50;;;4.63;;
31920;SDS011;66485;52.128;4.436;2023-06-10T05:59:35;8.20;;;5.20;;
31920;SDS011;66485;52.128;4.436;2023-06-10T06:02:01;7.05;;;4.47;;
31920;SDS011;66485;52.128;4.436;2023-06-10T06:04:26;7.72;;;4.95;;
31920;SDS011;66485;52.128;4.436;2023-06-10T06:06:52;8.82;;;5.35;;
31920;SDS011;66485;52.128;4.436;2023-06-10T06:09:17;8.98;;;5.18;;
31920;SDS011;66485;52.128;4.436;2023-06-10T06:11:42;7.77;;;4.80;;
31920;SDS011;66485;52.128;4.436;2023-06-10T06:14:08;6.50;;;4.75;;
31920;SDS011;66485;52.128;4.436;2023-06-10T06:16:33;8.77;;;5.20;;
31920;SDS011;66485;52.128;4.436;2023-06-10T06:18:58;8.23;;;5.05;;
31920;SDS011;66485;52.128;4.436;2023-06-10T06:21:24;7.55;;;5.18;;
31920;SDS011;66485;52.128;4.436;2023-06-10T06:23:49;8.15;;;5.18;;
31920;SDS011;66485;52.128;4.436;2023-06-10T06:26:15;7.20;;;4.90;;
31920;SDS011;66485;52.128;4.436;2023-06-10T06:28:40;10.40;;;4.72;;
31920;SDS011;66485;52.128;4.436;2023-06-10T06:31:06;8.23;;;5.30;;
31920;SDS011;66485;52.128;4.436;2023-06-10T06:33:32;7.38;;;4.55;;
31920;SDS011;66485;52.128;4.436;2023-06-10T06:35:57;6.22;;;4.65;;
31920;SDS011;66485;52.128;4.436;2023-06-10T06:38:25;5.55;;;4.57;;
31920;SDS011;66485;52.128;4.436;2023-06-10T06:40:50;8.95;;;5.10;;
31920;SDS011;66485;52.128;4.436;2023-06-10T06:43:16;7.03;;;4.38;;
31920;SDS011;66485;52.128;4.436;2023-06-10T06:45:42;7.97;;;4.45;;
31920;SDS011;66485;52.128;4.436;2023-06-10T06:48:07;7.53;;;4.90;;
31920;SDS011;66485;52.128;4.436;2023-06-10T06:50:33;7.25;;;5.07;;
31920;SDS011;66485;52.128;4.436;2023-06-10T06:52:58;6.25;;;4.47;;
31920;SDS011;66485;52.128;4.436;2023-06-10T06:55:23;7.07;;;4.95;;
31920;SDS011;66485;52.128;4.436;2023-06-10T06:57:49;7.80;;;4.60;;
31920;SDS011;66485;52.128;4.436;2023-06-10T07:00:14;7.38;;;5.03;;
31920;SDS011;66485;52.128;4.436;2023-06-10T07:02:40;6.78;;;4.60;;
31920;SDS011;66485;52.128;4.436;2023-06-10T07:05:05;7.53;;;4.43;;
31920;SDS011;66485;52.128;4.436;2023-06-10T07:07:31;7.28;;;4.60;;
31920;SDS011;66485;52.128;4.436;2023-06-10T07:09:56;9.57;;;4.57;;
31920;SDS011;66485;52.128;4.436;2023-06-10T07:12:21;8.18;;;4.72;;
31920;SDS011;66485;52.128;4.436;2023-06-10T07:14:49;7.20;;;4.20;;
31920;SDS011;66485;52.128;4.436;2023-06-10T07:17:15;7.90;;;4.90;;
31920;SDS011;66485;52.128;4.436;2023-06-10T07:19:42;7.80;;;4.90;;
31920;SDS011;66485;52.128;4.436;2023-06-10T07:22:08;7.40;;;4.85;;
31920;SDS011;66485;52.128;4.436;2023-06-10T07:24:34;8.27;;;5.30;;
31920;SDS011;66485;52.128;4.436;2023-06-10T07:26:59;7.50;;;4.57;;
31920;SDS011;66485;52.128;4.436;2023-06-10T07:29:24;6.30;;;4.68;;
31920;SDS011;66485;52.128;4.436;2023-06-10T07:31:50;9.52;;;5.25;;
31920;SDS011;66485;52.128;4.436;2023-06-10T07:34:15;7.75;;;5.00;;
31920;SDS011;66485;52.128;4.436;2023-06-10T07:36:40;8.60;;;5.73;;
31920;SDS011;66485;52.128;4.436;2023-06-10T07:39:05;9.95;;;5.53;;
31920;SDS011;66485;52.128;4.436;2023-06-10T07:41:32;7.55;;;5.20;;
31920;SDS011;66485;52.128;4.436;2023-06-10T07:43:57;7.43;;;5.10;;
31920;SDS011;66485;52.128;4.436;2023-06-10T07:46:23;10.20;;;5.57;;
31920;SDS011;66485;52.128;4.436;2023-06-10T07:48:49;7.43;;;5.20;;
31920;SDS011;66485;52.128;4.436;2023-06-10T07:51:15;7.78;;;5.57;;
31920;SDS011;66485;52.128;4.436;2023-06-10T07:53:41;8.27;;;5.38;;
31920;SDS011;66485;52.128;4.436;2023-06-10T07:56:07;7.93;;;4.80;;
31920;SDS011;66485;52.128;4.436;2023-06-10T07:58:32;7.13;;;5.00;;
31920;SDS011;66485;52.128;4.436;2023-06-10T08:00:57;7.47;;;5.18;;
31920;SDS011;66485;52.128;4.436;2023-06-10T08:03:23;8.18;;;4.80;;
31920;SDS011;66485;52.128;4.436;2023-06-10T08:05:48;8.50;;;5.38;;
31920;SDS011;66485;52.128;4.436;2023-06-10T08:08:14;8.27;;;5.72;;
31920;SDS011;66485;52.128;4.436;2023-06-10T08:10:39;7.77;;;5.10;;
31920;SDS011;66485;52.128;4.436;2023-06-10T08:13:04;8.02;;;5.22;;
31920;SDS011;66485;52.128;4.436;2023-06-10T08:15:30;9.00;;;5.40;;
31920;SDS011;66485;52.128;4.436;2023-06-10T08:17:55;9.63;;;5.10;;
31920;SDS011;66485;52.128;4.436;2023-06-10T08:20:21;12.13;;;5.38;;
31920;SDS011;66485;52.128;4.436;2023-06-10T08:22:47;7.90;;;5.32;;
31920;SDS011;66485;52.128;4.436;2023-06-10T08:25:12;8.88;;;5.18;;
31920;SDS011;66485;52.128;4.436;2023-06-10T08:27:43;6.97;;;4.95;;
31920;SDS011;66485;52.128;4.436;2023-06-10T08:32:35;8.27;;;5.15;;
31920;SDS011;66485;52.128;4.436;2023-06-10T08:35:01;9.27;;;5.18;;
31920;SDS011;66485;52.128;4.436;2023-06-10T08:37:27;9.77;;;4.95;;
31920;SDS011;66485;52.128;4.436;2023-06-10T08:39:52;8.80;;;5.15;;
31920;SDS011;66485;52.128;4.436;2023-06-10T08:42:34;10.52;;;5.70;;
31920;SDS011;66485;52.128;4.436;2023-06-10T08:45:05;8.50;;;4.70;;
31920;SDS011;66485;52.128;4.436;2023-06-10T08:47:33;7.10;;;4.70;;
31920;SDS011;66485;52.128;4.436;2023-06-10T08:50:04;10.52;;;4.85;;
31920;SDS011;66485;52.128;4.436;2023-06-10T08:52:36;10.85;;;4.75;;
31920;SDS011;66485;52.128;4.436;2023-06-10T08:55:03;7.45;;;4.55;;
31920;SDS011;66485;52.128;4.436;2023-06-10T08:57:33;10.20;;;5.28;;
31920;SDS011;66485;52.128;4.436;2023-06-10T08:59:58;8.95;;;5.25;;
31920;SDS011;66485;52.128;4.436;2023-06-10T09:02:24;9.82;;;5.22;;
31920;SDS011;66485;52.128;4.436;2023-06-10T09:04:51;9.52;;;5.78;;
31920;SDS011;66485;52.128;4.436;2023-06-10T09:07:18;21.50;;;5.90;;
31920;SDS011;66485;52.128;4.436;2023-06-10T09:09:44;10.30;;;5.82;;
31920;SDS011;66485;52.128;4.436;2023-06-10T09:12:10;11.02;;;6.35;;
31920;SDS011;66485;52.128;4.436;2023-06-10T09:14:36;11.55;;;6.20;;
31920;SDS011;66485;52.128;4.436;2023-06-10T09:17:03;9.55;;;6.45;;
31920;SDS011;66485;52.128;4.436;2023-06-10T09:19:29;9.90;;;6.35;;
31920;SDS011;66485;52.128;4.436;2023-06-10T09:21:54;10.68;;;6.10;;
31920;SDS011;66485;52.128;4.436;2023-06-10T09:24:23;9.65;;;5.95;;
31920;SDS011;66485;52.128;4.436;2023-06-10T09:26:49;11.40;;;6.10;;
31920;SDS011;66485;52.128;4.436;2023-06-10T09:29:15;15.55;;;6.25;;
31920;SDS011;66485;52.128;4.436;2023-06-10T09:31:41;13.05;;;7.28;;
31920;SDS011;66485;52.128;4.436;2023-06-10T09:34:09;11.40;;;6.82;;
31920;SDS011;66485;52.128;4.436;2023-06-10T09:36:39;10.80;;;6.53;;
31920;SDS011;66485;52.128;4.436;2023-06-10T09:39:05;14.77;;;6.90;;
31920;SDS011;66485;52.128;4.436;2023-06-10T09:41:42;13.02;;;6.50;;
31920;SDS011;66485;52.128;4.436;2023-06-10T09:44:26;12.68;;;6.45;;
31920;SDS011;66485;52.128;4.436;2023-06-10T09:46:52;15.68;;;7.10;;
31920;SDS011;66485;52.128;4.436;2023-06-10T09:49:19;10.73;;;6.47;;
31920;SDS011;66485;52.128;4.436;2023-06-10T09:51:51;11.02;;;6.05;;
31920;SDS011;66485;52.128;4.436;2023-06-10T09:54:18;11.25;;;5.78;;
31920;SDS011;66485;52.128;4.436;2023-06-10T09:56:46;15.00;;;6.00;;
31920;SDS011;66485;52.128;4.436;2023-06-10T09:59:13;10.73;;;6.53;;
31920;SDS011;66485;52.128;4.436;2023-06-10T10:01:39;9.90;;;6.13;;
31920;SDS011;66485;52.128;4.436;2023-06-10T10:04:04;9.13;;;6.03;;
31920;SDS011;66485;52.128;4.436;2023-06-10T10:06:29;9.98;;;6.03;;
31920;SDS011;66485;52.128;4.436;2023-06-10T10:08:55;12.30;;;6.45;;
31920;SDS011;66485;52.128;4.436;2023-06-10T10:11:21;11.05;;;6.28;;
31920;SDS011;66485;52.128;4.436;2023-06-10T10:13:48;9.80;;;5.63;;
31920;SDS011;66485;52.128;4.436;2023-06-10T10:16:16;12.00;;;6.40;;
31920;SDS011;66485;52.128;4.436;2023-06-10T10:18:46;10.07;;;5.97;;
31920;SDS011;66485;52.128;4.436;2023-06-10T10:21:21;9.63;;;5.50;;
31920;SDS011;66485;52.128;4.436;2023-06-10T10:23:59;11.40;;;5.63;;
31920;SDS011;66485;52.128;4.436;2023-06-10T10:26:26;8.07;;;5.55;;
31920;SDS011;66485;52.128;4.436;2023-06-10T10:28:55;9.25;;;5.35;;
31920;SDS011;66485;52.128;4.436;2023-06-10T10:31:29;9.85;;;5.97;;
31920;SDS011;66485;52.128;4.436;2023-06-10T10:33:59;8.93;;;5.65;;
31920;SDS011;66485;52.128;4.436;2023-06-10T10:36:25;8.65;;;5.35;;
31920;SDS011;66485;52.128;4.436;2023-06-10T10:38:51;9.15;;;5.60;;
31920;SDS011;66485;52.128;4.436;2023-06-10T10:41:16;9.90;;;5.40;;
31920;SDS011;66485;52.128;4.436;2023-06-10T10:43:43;7.97;;;4.97;;
31920;SDS011;66485;52.128;4.436;2023-06-10T10:46:13;7.75;;;5.20;;
31920;SDS011;66485;52.128;4.436;2023-06-10T10:48:40;9.25;;;5.43;;
31920;SDS011;66485;52.128;4.436;2023-06-10T10:51:11;9.73;;;5.32;;
31920;SDS011;66485;52.128;4.436;2023-06-10T10:53:37;9.85;;;5.18;;
31920;SDS011;66485;52.128;4.436;2023-06-10T10:56:14;8.15;;;4.95;;
31920;SDS011;66485;52.128;4.436;2023-06-10T10:58:43;8.52;;;5.32;;
31920;SDS011;66485;52.128;4.436;2023-06-10T11:01:28;7.95;;;4.57;;
31920;SDS011;66485;52.128;4.436;2023-06-10T11:04:06;8.07;;;5.07;;
31920;SDS011;66485;52.128;4.436;2023-06-10T11:06:33;9.82;;;5.10;;
31920;SDS011;66485;52.128;4.436;2023-06-10T11:08:58;6.72;;;4.22;;
31920;SDS011;66485;52.128;4.436;2023-06-10T11:11:26;7.40;;;4.75;;
31920;SDS011;66485;52.128;4.436;2023-06-10T11:16:27;8.50;;;4.68;;
31920;SDS011;66485;52.128;4.436;2023-06-10T11:18:53;9.25;;;5.00;;
31920;SDS011;66485;52.128;4.436;2023-06-10T11:21:20;7.13;;;4.35;;
31920;SDS011;66485;52.128;4.436;2023-06-10T11:23:45;7.50;;;4.72;;
31920;SDS011;66485;52.128;4.436;2023-06-10T11:36:23;7.32;;;4.22;;
31920;SDS011;66485;52.128;4.436;2023-06-10T11:38:56;7.72;;;4.82;;
31920;SDS011;66485;52.128;4.436;2023-06-10T11:41:23;8.38;;;4.43;;
31920;SDS011;66485;52.128;4.436;2023-06-10T11:43:50;7.07;;;4.50;;
31920;SDS011;66485;52.128;4.436;2023-06-10T11:46:16;8.73;;;4.20;;
31920;SDS011;66485;52.128;4.436;2023-06-10T11:48:48;7.00;;;4.07;;
31920;SDS011;66485;52.128;4.436;2023-06-10T11:51:15;5.63;;;3.80;;
31920;SDS011;66485;52.128;4.436;2023-06-10T11:53:43;5.78;;;3.72;;
31920;SDS011;66485;52.128;4.436;2023-06-10T11:56:09;6.82;;;3.70;;
31920;SDS011;66485;52.128;4.436;2023-06-10T11:58:34;6.03;;;3.90;;
31920;SDS011;66485;52.128;4.436;2023-06-10T12:01:00;6.72;;;4.38;;
31920;SDS011;66485;52.128;4.436;2023-06-10T12:03:26;7.93;;;4.05;;
31920;SDS011;66485;52.128;4.436;2023-06-10T12:06:03;6.63;;;4.30;;
31920;SDS011;66485;52.128;4.436;2023-06-10T12:08:31;5.30;;;3.87;;
31920;SDS011;66485;52.128;4.436;2023-06-10T12:10:57;6.75;;;4.25;;
31920;SDS011;66485;52.128;4.436;2023-06-10T12:13:23;5.95;;;4.07;;
31920;SDS011;66485;52.128;4.436;2023-06-10T12:15:51;5.47;;;3.80;;
31920;SDS011;66485;52.128;4.436;2023-06-10T12:18:22;5.75;;;4.05;;
31920;SDS011;66485;52.128;4.436;2023-06-10T12:20:49;6.25;;;4.05;;
31920;SDS011;66485;52.128;4.436;2023-06-10T12:23:18;5.35;;;3.83;;
31920;SDS011;66485;52.128;4.436;2023-06-10T12:25:53;5.32;;;3.70;;
31920;SDS011;66485;52.128;4.436;2023-06-10T12:28:23;6.30;;;3.85;;
31920;SDS011;66485;52.128;4.436;2023-06-10T12:30:49;6.05;;;3.90;;
31920;SDS011;66485;52.128;4.436;2023-06-10T12:33:16;5.20;;;3.70;;
31920;SDS011;66485;52.128;4.436;2023-06-10T12:35:48;5.43;;;3.83;;
31920;SDS011;66485;52.128;4.436;2023-06-10T12:38:22;5.40;;;3.40;;
31920;SDS011;66485;52.128;4.436;2023-06-10T12:40:52;4.97;;;3.83;;
31920;SDS011;66485;52.128;4.436;2023-06-10T12:43:21;6.38;;;3.88;;
31920;SDS011;66485;52.128;4.436;2023-06-10T12:45:49;5.80;;;3.85;;
31920;SDS011;66485;52.128;4.436;2023-06-10T12:48:19;6.60;;;4.03;;
31920;SDS011;66485;52.128;4.436;2023-06-10T12:50:50;5.90;;;3.58;;
31920;SDS011;66485;52.128;4.436;2023-06-10T12:55:43;5.90;;;3.50;;
31920;SDS011;66485;52.128;4.436;2023-06-10T12:58:10;5.72;;;3.30;;
31920;SDS011;66485;52.128;4.436;2023-06-10T13:00:36;4.63;;;3.30;;
31920;SDS011;66485;52.128;4.436;2023-06-10T13:03:01;5.07;;;3.50;;
31920;SDS011;66485;52.128;4.436;2023-06-10T13:05:27;4.80;;;3.42;;
31920;SDS011;66485;52.128;4.436;2023-06-10T13:07:54;5.38;;;3.70;;
31920;SDS011;66485;52.128;4.436;2023-06-10T13:10:20;5.10;;;3.50;;
31920;SDS011;66485;52.128;4.436;2023-06-10T13:12:46;5.28;;;3.50;;
31920;SDS011;66485;52.128;4.436;2023-06-10T13:15:11;6.63;;;3.92;;
31920;SDS011;66485;52.128;4.436;2023-06-10T13:17:38;5.32;;;3.40;;
31920;SDS011;66485;52.128;4.436;2023-06-10T13:20:04;5.53;;;3.55;;
31920;SDS011;66485;52.128;4.436;2023-06-10T13:22:30;6.07;;;3.53;;
31920;SDS011;66485;52.128;4.436;2023-06-10T13:24:58;4.97;;;3.63;;
31920;SDS011;66485;52.128;4.436;2023-06-10T13:27:24;4.88;;;3.58;;
31920;SDS011;66485;52.128;4.436;2023-06-10T13:29:49;5.60;;;3.63;;
31920;SDS011;66485;52.128;4.436;2023-06-10T13:32:15;4.75;;;3.22;;
31920;SDS011;66485;52.128;4.436;2023-06-10T13:34:40;4.43;;;3.33;;
31920;SDS011;66485;52.128;4.436;2023-06-10T13:37:05;4.70;;;3.30;;
31920;SDS011;66485;52.128;4.436;2023-06-10T13:39:31;5.68;;;3.95;;
31920;SDS011;66485;52.128;4.436;2023-06-10T13:41:56;6.87;;;3.50;;
31920;SDS011;66485;52.128;4.436;2023-06-10T13:44:22;5.33;;;3.30;;
31920;SDS011;66485;52.128;4.436;2023-06-10T13:46:47;5.38;;;3.28;;
31920;SDS011;66485;52.128;4.436;2023-06-10T13:49:12;4.43;;;3.13;;
31920;SDS011;66485;52.128;4.436;2023-06-10T13:51:37;4.43;;;3.22;;
31920;SDS011;66485;52.128;4.436;2023-06-10T13:54:03;6.15;;;3.47;;
31920;SDS011;66485;52.128;4.436;2023-06-10T13:56:28;5.35;;;3.45;;
31920;SDS011;66485;52.128;4.436;2023-06-10T13:58:53;5.20;;;3.13;;
31920;SDS011;66485;52.128;4.436;2023-06-10T14:01:19;5.97;;;3.42;;
31920;SDS011;66485;52.128;4.436;2023-06-10T14:03:45;4.45;;;3.00;;
31920;SDS011;66485;52.128;4.436;2023-06-10T14:06:10;4.35;;;3.40;;
31920;SDS011;66485;52.128;4.436;2023-06-10T14:08:38;5.85;;;3.30;;
31920;SDS011;66485;52.128;4.436;2023-06-10T14:11:03;4.95;;;3.30;;
31920;SDS011;66485;52.128;4.436;2023-06-10T14:13:29;6.18;;;3.50;;
31920;SDS011;66485;52.128;4.436;2023-06-10T14:15:54;6.85;;;4.05;;
31920;SDS011;66485;52.128;4.436;2023-06-10T14:18:20;4.65;;;3.30;;
31920;SDS011;66485;52.128;4.436;2023-06-10T14:20:45;5.10;;;3.50;;
31920;SDS011;66485;52.128;4.436;2023-06-10T14:23:10;4.70;;;3.47;;
31920;SDS011;66485;52.128;4.436;2023-06-10T14:25:36;4.90;;;3.37;;
31920;SDS011;66485;52.128;4.436;2023-06-10T14:28:01;5.00;;;3.38;;
31920;SDS011;66485;52.128;4.436;2023-06-10T14:30:27;4.72;;;3.30;;
31920;SDS011;66485;52.128;4.436;2023-06-10T14:32:52;5.57;;;3.50;;
31920;SDS011;66485;52.128;4.436;2023-06-10T14:35:17;4.18;;;3.00;;
31920;SDS011;66485;52.128;4.436;2023-06-10T14:37:43;4.93;;;3.38;;
31920;SDS011;66485;52.128;4.436;2023-06-10T14:40:08;4.90;;;3.03;;
31920;SDS011;66485;52.128;4.436;2023-06-10T14:42:34;5.55;;;3.08;;
31920;SDS011;66485;52.128;4.436;2023-06-10T14:44:59;3.97;;;2.83;;
31920;SDS011;66485;52.128;4.436;2023-06-10T14:47:25;4.80;;;3.40;;
31920;SDS011;66485;52.128;4.436;2023-06-10T14:49:51;4.88;;;2.80;;
31920;SDS011;66485;52.128;4.436;2023-06-10T14:52:16;5.13;;;3.20;;
31920;SDS011;66485;52.128;4.436;2023-06-10T14:54:42;5.13;;;3.25;;
31920;SDS011;66485;52.128;4.436;2023-06-10T14:57:07;4.43;;;3.20;;
31920;SDS011;66485;52.128;4.436;2023-06-10T14:59:33;4.00;;;2.92;;
31920;SDS011;66485;52.128;4.436;2023-06-10T15:01:59;4.10;;;3.05;;